sensor_id;sensor_type;location;lat;lon;timestamp;pressure;altitude;pressure_sealevel;temperature;humidity
5905;BME280;2978;42.012;24.880;2023-06-19T00:01:59;66104.38;;;-143.09;100.00
5905;BME280;2978;42.012;24.880;2023-06-19T00:04:25;66104.38;;;-143.09;100.00
5905;BME280;2978;42.012;24.880;2023-06-19T00:06:52;66104.38;;;-143.09;100.00
5905;BME280;2978;42.012;24.880;2023-06-19T00:09:17;66104.38;;;-143.09;100.00
5905;BME280;2978;42.012;24.880;2023-06-19T00:11:43;66104.38;;;-143.09;100.00
5905;BME280;2978;42.012;24.880;2023-06-19T00:14:09;98594.91;;;22.26;68.14
5905;BME280;2978;42.012;24.880;2023-06-19T00:16:34;98603.28;;;21.87;70.61
5905;BME280;2978;42.012;24.880;2023-06-19T00:19:00;98598.28;;;21.92;69.79
5905;BME280;2978;42.012;24.880;2023-06-19T00:21:25;98601.69;;;21.86;70.17
5905;BME280;2978;42.012;24.880;2023-06-19T00:23:52;98602.13;;;21.76;70.16
5905;BME280;2978;42.012;24.880;2023-06-19T00:26:18;98606.78;;;21.72;70.12
5905;BME280;2978;42.012;24.880;2023-06-19T00:28:44;98606.22;;;21.66;70.72
5905;BME280;2978;42.012;24.880;2023-06-19T00:31:13;98612.41;;;21.72;70.95
5905;BME280;2978;42.012;24.880;2023-06-19T00:33:39;98608.91;;;21.87;69.99
5905;BME280;2978;42.012;24.880;2023-06-19T00:36:11;98600.94;;;22.01;69.50
5905;BME280;2978;42.012;24.880;2023-06-19T00:38:37;98613.63;;;22.10;68.80
5905;BME280;2978;42.012;24.880;2023-06-19T00:41:03;98615.97;;;22.08;68.81
5905;BME280;2978;42.012;24.880;2023-06-19T00:43:30;98620.03;;;22.11;68.87
5905;BME280;2978;42.012;24.880;2023-06-19T00:45:59;98619.69;;;22.12;68.66
5905;BME280;2978;42.012;24.880;2023-06-19T00:48:26;98609.75;;;22.15;68.46
5905;BME280;2978;42.012;24.880;2023-06-19T00:50:52;98619.00;;;22.15;68.26
5905;BME280;2978;42.012;24.880;2023-06-19T00:53:19;98611.88;;;22.06;68.54
5905;BME280;2978;42.012;24.880;2023-06-19T00:55:46;98612.50;;;21.99;69.17
5905;BME280;2978;42.012;24.880;2023-06-19T00:58:12;98617.72;;;22.01;68.74
5905;BME280;2978;42.012;24.880;2023-06-19T01:00:38;98619.75;;;21.88;69.64
5905;BME280;2978;42.012;24.880;2023-06-19T01:03:04;98616.81;;;21.85;69.50
5905;BME280;2978;42.012;24.880;2023-06-19T01:05:29;98620.69;;;21.80;69.70
5905;BME280;2978;42.012;24.880;2023-06-19T01:10:57;98630.72;;;21.81;69.22
5905;BME280;2978;42.012;24.880;2023-06-19T01:13:30;98613.34;;;21.76;70.01
5905;BME280;2978;42.012;24.880;2023-06-19T01:15:59;98620.69;;;21.56;70.50
5905;BME280;2978;42.012;24.880;2023-06-19T01:18:27;98613.22;;;21.48;71.34
5905;BME280;2978;42.012;24.880;2023-06-19T01:20:53;98610.41;;;21.48;71.89
5905;BME280;2978;42.012;24.880;2023-06-19T01:23:19;98608.78;;;21.23;72.54
5905;BME280;2978;42.012;24.880;2023-06-19T01:25:44;66104.38;;;-143.09;100.00
5905;BME280;2978;42.012;24.880;2023-06-19T01:28:11;98613.06;;;21.08;73.50
5905;BME280;2978;42.012;24.880;2023-06-19T01:30:41;98607.59;;;21.12;73.70
5905;BME280;2978;42.012;24.880;2023-06-19T01:35:37;98614.25;;;21.07;73.71
5905;BME280;2978;42.012;24.880;2023-06-19T01:38:06;98618.19;;;21.06;74.26
5905;BME280;2978;42.012;24.880;2023-06-19T01:40:33;98608.94;;;20.94;74.75
5905;BME280;2978;42.012;24.880;2023-06-19T01:43:00;98609.97;;;20.89;74.90
5905;BME280;2978;42.012;24.880;2023-06-19T01:45:28;98616.88;;;20.92;75.01
5905;BME280;2978;42.012;24.880;2023-06-19T01:47:54;98616.53;;;20.93;74.95
5905;BME280;2978;42.012;24.880;2023-06-19T01:50:21;98614.06;;;20.92;74.86
5905;BME280;2978;42.012;24.880;2023-06-19T01:52:47;98606.34;;;20.89;74.91
5905;BME280;2978;42.012;24.880;2023-06-19T01:55:13;98601.72;;;20.93;74.92
5905;BME280;2978;42.012;24.880;2023-06-19T01:57:38;98606.22;;;21.06;73.70
5905;BME280;2978;42.012;24.880;2023-06-19T02:00:05;98600.16;;;21.16;73.04
5905;BME280;2978;42.012;24.880;2023-06-19T02:02:32;98600.63;;;21.18;73.11
5905;BME280;2978;42.012;24.880;2023-06-19T02:04:58;98604.34;;;21.22;72.50
5905;BME280;2978;42.012;24.880;2023-06-19T02:07:23;98607.16;;;21.34;72.58
5905;BME280;2978;42.012;24.880;2023-06-19T02:09:49;98609.03;;;21.42;71.67
5905;BME280;2978;42.012;24.880;2023-06-19T02:12:14;98610.41;;;21.48;70.99
5905;BME280;2978;42.012;24.880;2023-06-19T02:14:39;98617.78;;;21.41;70.97
5905;BME280;2978;42.012;24.880;2023-06-19T02:17:05;98613.22;;;21.24;71.81
5905;BME280;2978;42.012;24.880;2023-06-19T02:19:30;98617.63;;;21.13;72.44
5905;BME280;2978;42.012;24.880;2023-06-19T02:21:56;98626.81;;;21.13;72.73
5905;BME280;2978;42.012;24.880;2023-06-19T02:24:21;98623.91;;;21.10;72.69
5905;BME280;2978;42.012;24.880;2023-06-19T02:26:47;98627.63;;;21.02;73.01
5905;BME280;2978;42.012;24.880;2023-06-19T02:29:12;98628.47;;;20.82;73.69
5905;BME280;2978;42.012;24.880;2023-06-19T02:31:38;98630.13;;;20.83;73.62
5905;BME280;2978;42.012;24.880;2023-06-19T02:34:03;98641.06;;;20.88;73.20
5905;BME280;2978;42.012;24.880;2023-06-19T02:36:28;98641.31;;;20.95;73.30
5905;BME280;2978;42.012;24.880;2023-06-19T02:38:55;98638.97;;;20.85;73.27
5905;BME280;2978;42.012;24.880;2023-06-19T02:41:21;98624.03;;;20.69;73.99
5905;BME280;2978;42.012;24.880;2023-06-19T02:43:46;98641.00;;;20.64;74.19
5905;BME280;2978;42.012;24.880;2023-06-19T02:46:12;98640.56;;;20.74;74.30
5905;BME280;2978;42.012;24.880;2023-06-19T02:48:37;98635.72;;;20.83;73.35
5905;BME280;2978;42.012;24.880;2023-06-19T02:51:03;98628.84;;;20.92;72.74
5905;BME280;2978;42.012;24.880;2023-06-19T02:53:28;98616.97;;;20.83;72.97
5905;BME280;2978;42.012;24.880;2023-06-19T02:55:54;98630.75;;;20.68;73.80
5905;BME280;2978;42.012;24.880;2023-06-19T02:58:19;98630.03;;;20.59;74.13
5905;BME280;2978;42.012;24.880;2023-06-19T03:00:46;98630.31;;;20.66;73.98
5905;BME280;2978;42.012;24.880;2023-06-19T03:03:11;98638.03;;;20.81;73.51
5905;BME280;2978;42.012;24.880;2023-06-19T03:05:37;98628.59;;;20.85;73.16
5905;BME280;2978;42.012;24.880;2023-06-19T03:08:03;98631.28;;;20.94;72.87
5905;BME280;2978;42.012;24.880;2023-06-19T03:10:29;98634.22;;;20.97;71.91
5905;BME280;2978;42.012;24.880;2023-06-19T03:12:54;98638.06;;;20.93;72.36
5905;BME280;2978;42.012;24.880;2023-06-19T03:15:19;98626.03;;;20.80;72.88
5905;BME280;2978;42.012;24.880;2023-06-19T03:17:45;98632.44;;;20.81;73.05
5905;BME280;2978;42.012;24.880;2023-06-19T03:20:10;98625.63;;;20.70;73.39
5905;BME280;2978;42.012;24.880;2023-06-19T03:22:40;98638.84;;;20.81;73.29
5905;BME280;2978;42.012;24.880;2023-06-19T03:25:06;98635.34;;;20.84;72.79
5905;BME280;2978;42.012;24.880;2023-06-19T03:27:32;98635.22;;;20.81;73.03
5905;BME280;2978;42.012;24.880;2023-06-19T03:29:58;98635.59;;;20.79;73.16
5905;BME280;2978;42.012;24.880;2023-06-19T03:32:23;98624.97;;;20.73;73.68
5905;BME280;2978;42.012;24.880;2023-06-19T03:34:49;98644.06;;;20.71;73.42
5905;BME280;2978;42.012;24.880;2023-06-19T03:37:14;98628.53;;;20.61;73.67
5905;BME280;2978;42.012;24.880;2023-06-19T03:39:40;98640.75;;;20.57;73.83
5905;BME280;2978;42.012;24.880;2023-06-19T03:42:06;98639.13;;;20.68;73.51
5905;BME280;2978;42.012;24.880;2023-06-19T03:44:31;98634.19;;;20.85;73.13
5905;BME280;2978;42.012;24.880;2023-06-19T03:46:57;98650.41;;;20.92;73.25
5905;BME280;2978;42.012;24.880;2023-06-19T03:49:22;98651.06;;;21.09;72.04
5905;BME280;2978;42.012;24.880;2023-06-19T03:51:47;98653.06;;;21.21;71.66
5905;BME280;2978;42.012;24.880;2023-06-19T03:54:13;98641.66;;;21.26;72.06
5905;BME280;2978;42.012;24.880;2023-06-19T03:56:38;98633.25;;;21.38;71.18
5905;BME280;2978;42.012;24.880;2023-06-19T03:59:04;98644.44;;;21.50;70.56
5905;BME280;2978;42.012;24.880;2023-06-19T04:01:29;98642.38;;;21.59;69.62
5905;BME280;2978;42.012;24.880;2023-06-19T04:03:54;98635.50;;;21.69;69.25
5905;BME280;2978;42.012;24.880;2023-06-19T04:06:20;98650.41;;;21.73;69.05
5905;BME280;2978;42.012;24.880;2023-06-19T04:08:45;98642.13;;;21.76;68.95
5905;BME280;2978;42.012;24.880;2023-06-19T04:11:11;98642.13;;;21.80;68.95
5905;BME280;2978;42.012;24.880;2023-06-19T04:13:36;112235.75;;;23.09;63.92
5905;BME280;2978;42.012;24.880;2023-06-19T04:16:02;98628.41;;;23.99;59.98
5905;BME280;2978;42.012;24.880;2023-06-19T04:18:27;98641.22;;;24.70;57.38
5905;BME280;2978;42.012;24.880;2023-06-19T04:20:53;98634.47;;;25.35;55.26
5905;BME280;2978;42.012;24.880;2023-06-19T04:23:19;98634.47;;;25.35;55.26
5905;BME280;2978;42.012;24.880;2023-06-19T04:25:44;66104.38;;;-143.09;100.00
5905;BME280;2978;42.012;24.880;2023-06-19T04:28:10;66104.38;;;-143.09;100.00
5905;BME280;2978;42.012;24.880;2023-06-19T04:30:35;66104.38;;;-143.09;100.00
5905;BME280;2978;42.012;24.880;2023-06-19T04:33:00;66104.38;;;-143.09;100.00
5905;BME280;2978;42.012;24.880;2023-06-19T04:35:26;98634.72;;;28.07;46.39
5905;BME280;2978;42.012;24.880;2023-06-19T04:37:53;-14184.63;;;-143.09;100.00
5905;BME280;2978;42.012;24.880;2023-06-19T04:40:19;66104.38;;;-143.09;100.00
5905;BME280;2978;42.012;24.880;2023-06-19T04:42:44;66104.38;;;-143.09;100.00
5905;BME280;2978;42.012;24.880;2023-06-19T04:45:10;66104.38;;;-143.09;100.00
5905;BME280;2978;42.012;24.880;2023-06-19T04:47:35;66104.38;;;-143.09;100.00
5905;BME280;2978;42.012;24.880;2023-06-19T04:50:01;98631.09;;;28.78;44.18
5905;BME280;2978;42.012;24.880;2023-06-19T04:52:26;98654.53;;;28.72;44.29
5905;BME280;2978;42.012;24.880;2023-06-19T04:54:52;98645.97;;;28.58;44.64
5905;BME280;2978;42.012;24.880;2023-06-19T04:57:17;98645.84;;;29.23;43.44
5905;BME280;2978;42.012;24.880;2023-06-19T04:59:43;66104.38;;;-143.09;100.00
5905;BME280;2978;42.012;24.880;2023-06-19T05:02:12;66104.38;;;-143.09;100.00
5905;BME280;2978;42.012;24.880;2023-06-19T05:04:37;66104.38;;;-143.09;100.00
5905;BME280;2978;42.012;24.880;2023-06-19T05:07:03;66104.38;;;-143.09;100.00
5905;BME280;2978;42.012;24.880;2023-06-19T05:09:28;66104.38;;;-143.09;100.00
5905;BME280;2978;42.012;24.880;2023-06-19T05:11:54;66104.38;;;-143.09;100.00
5905;BME280;2978;42.012;24.880;2023-06-19T05:14:20;66104.38;;;-143.09;100.00
5905;BME280;2978;42.012;24.880;2023-06-19T05:16:45;66104.38;;;-143.09;100.00
5905;BME280;2978;42.012;24.880;2023-06-19T05:19:11;66104.38;;;-143.09;100.00
5905;BME280;2978;42.012;24.880;2023-06-19T05:21:36;66104.38;;;-143.09;100.00
5905;BME280;2978;42.012;24.880;2023-06-19T05:24:02;66104.38;;;-143.09;100.00
5905;BME280;2978;42.012;24.880;2023-06-19T05:26:27;66104.38;;;-143.09;100.00
5905;BME280;2978;42.012;24.880;2023-06-19T05:28:53;66104.38;;;-143.09;100.00
5905;BME280;2978;42.012;24.880;2023-06-19T05:31:18;66104.38;;;-143.09;100.00
5905;BME280;2978;42.012;24.880;2023-06-19T05:33:44;66104.38;;;-143.09;100.00
5905;BME280;2978;42.012;24.880;2023-06-19T05:36:10;66104.38;;;-143.09;100.00
5905;BME280;2978;42.012;24.880;2023-06-19T05:38:36;66104.38;;;-143.09;100.00
5905;BME280;2978;42.012;24.880;2023-06-19T05:41:02;66104.38;;;-143.09;100.00
5905;BME280;2978;42.012;24.880;2023-06-19T05:43:28;66104.38;;;-143.09;100.00
5905;BME280;2978;42.012;24.880;2023-06-19T05:45:54;66104.38;;;-143.09;100.00
5905;BME280;2978;42.012;24.880;2023-06-19T05:48:21;66104.38;;;-143.09;100.00
5905;BME280;2978;42.012;24.880;2023-06-19T05:50:46;66104.38;;;-143.09;100.00
5905;BME280;2978;42.012;24.880;2023-06-19T05:53:12;66104.38;;;-143.09;100.00
5905;BME280;2978;42.012;24.880;2023-06-19T05:55:37;66104.38;;;-143.09;100.00
5905;BME280;2978;42.012;24.880;2023-06-19T05:58:03;66104.38;;;-143.09;100.00
5905;BME280;2978;42.012;24.880;2023-06-19T06:00:29;66104.38;;;-143.09;100.00
5905;BME280;2978;42.012;24.880;2023-06-19T06:02:56;66104.38;;;-143.09;100.00
5905;BME280;2978;42.012;24.880;2023-06-19T06:05:24;66104.38;;;-143.09;100.00
5905;BME280;2978;42.012;24.880;2023-06-19T06:07:50;66104.38;;;-143.09;100.00
5905;BME280;2978;42.012;24.880;2023-06-19T06:10:15;66104.38;;;-143.09;100.00
5905;BME280;2978;42.012;24.880;2023-06-19T06:12:42;66104.38;;;-143.09;100.00
5905;BME280;2978;42.012;24.880;2023-06-19T06:15:07;66104.38;;;-143.09;100.00
5905;BME280;2978;42.012;24.880;2023-06-19T06:17:33;66104.38;;;-143.09;100.00
5905;BME280;2978;42.012;24.880;2023-06-19T06:19:58;66104.38;;;-143.09;100.00
5905;BME280;2978;42.012;24.880;2023-06-19T06:22:24;66104.38;;;-143.09;100.00
5905;BME280;2978;42.012;24.880;2023-06-19T06:24:50;66104.38;;;-143.09;100.00
5905;BME280;2978;42.012;24.880;2023-06-19T06:27:15;66104.38;;;-143.09;100.00
5905;BME280;2978;42.012;24.880;2023-06-19T06:29:40;66104.38;;;-143.09;100.00
5905;BME280;2978;42.012;24.880;2023-06-19T06:32:07;66104.38;;;-143.09;100.00
5905;BME280;2978;42.012;24.880;2023-06-19T06:34:33;66104.38;;;-143.09;100.00
5905;BME280;2978;42.012;24.880;2023-06-19T06:37:02;66104.38;;;-143.09;100.00
5905;BME280;2978;42.012;24.880;2023-06-19T06:39:28;66104.38;;;-143.09;100.00
5905;BME280;2978;42.012;24.880;2023-06-19T06:41:53;66104.38;;;-143.09;100.00
5905;BME280;2978;42.012;24.880;2023-06-19T06:44:19;66104.38;;;-143.09;100.00
5905;BME280;2978;42.012;24.880;2023-06-19T06:46:44;66104.38;;;-143.09;100.00
5905;BME280;2978;42.012;24.880;2023-06-19T06:49:11;66104.38;;;-143.09;100.00
5905;BME280;2978;42.012;24.880;2023-06-19T06:51:36;66104.38;;;-143.09;100.00
5905;BME280;2978;42.012;24.880;2023-06-19T06:54:02;66104.38;;;-143.09;100.00
5905;BME280;2978;42.012;24.880;2023-06-19T06:56:27;66104.38;;;-143.09;100.00
5905;BME280;2978;42.012;24.880;2023-06-19T06:58:53;66104.38;;;-143.09;100.00
5905;BME280;2978;42.012;24.880;2023-06-19T07:01:18;66104.38;;;-143.09;100.00
5905;BME280;2978;42.012;24.880;2023-06-19T07:03:44;66104.38;;;-143.09;100.00
5905;BME280;2978;42.012;24.880;2023-06-19T07:06:09;66104.38;;;-143.09;100.00
5905;BME280;2978;42.012;24.880;2023-06-19T07:08:36;66104.38;;;-143.09;100.00
5905;BME280;2978;42.012;24.880;2023-06-19T07:11:02;66104.38;;;-143.09;100.00
5905;BME280;2978;42.012;24.880;2023-06-19T07:13:28;66104.38;;;-143.09;100.00
5905;BME280;2978;42.012;24.880;2023-06-19T07:15:53;66104.38;;;-143.09;100.00
5905;BME280;2978;42.012;24.880;2023-06-19T07:18:18;66104.38;;;-143.09;100.00
5905;BME280;2978;42.012;24.880;2023-06-19T07:20:44;66104.38;;;-143.09;100.00
5905;BME280;2978;42.012;24.880;2023-06-19T07:23:10;66104.38;;;-143.09;100.00
5905;BME280;2978;42.012;24.880;2023-06-19T07:25:35;66104.38;;;-143.09;100.00
5905;BME280;2978;42.012;24.880;2023-06-19T07:28:01;66104.38;;;-143.09;100.00
5905;BME280;2978;42.012;24.880;2023-06-19T07:30:27;66104.38;;;-143.09;100.00
5905;BME280;2978;42.012;24.880;2023-06-19T07:32:52;66104.38;;;-143.09;100.00
5905;BME280;2978;42.012;24.880;2023-06-19T07:35:18;66104.38;;;-143.09;100.00
5905;BME280;2978;42.012;24.880;2023-06-19T07:37:44;66104.38;;;-143.09;100.00
5905;BME280;2978;42.012;24.880;2023-06-19T07:40:10;66104.38;;;-143.09;100.00
5905;BME280;2978;42.012;24.880;2023-06-19T07:42:36;66104.38;;;-143.09;100.00
5905;BME280;2978;42.012;24.880;2023-06-19T07:45:02;66104.38;;;-143.09;100.00
5905;BME280;2978;42.012;24.880;2023-06-19T07:47:27;66104.38;;;-143.09;100.00
5905;BME280;2978;42.012;24.880;2023-06-19T07:49:53;66104.38;;;-143.09;100.00
5905;BME280;2978;42.012;24.880;2023-06-19T07:52:18;66104.38;;;-143.09;100.00
5905;BME280;2978;42.012;24.880;2023-06-19T07:54:57;66104.38;;;-143.09;100.00
5905;BME280;2978;42.012;24.880;2023-06-19T07:57:24;66104.38;;;-143.09;100.00
5905;BME280;2978;42.012;24.880;2023-06-19T07:59:50;66104.38;;;-143.09;100.00
5905;BME280;2978;42.012;24.880;2023-06-19T08:02:16;66104.38;;;-143.09;100.00
5905;BME280;2978;42.012;24.880;2023-06-19T08:04:42;66104.38;;;-143.09;100.00
5905;BME280;2978;42.012;24.880;2023-06-19T08:07:07;66104.38;;;-143.09;100.00
5905;BME280;2978;42.012;24.880;2023-06-19T08:09:33;66104.38;;;-143.09;100.00
5905;BME280;2978;42.012;24.880;2023-06-19T08:11:58;66104.38;;;-143.09;100.00
5905;BME280;2978;42.012;24.880;2023-06-19T08:14:24;66104.38;;;-143.09;100.00
5905;BME280;2978;42.012;24.880;2023-06-19T08:16:49;66104.38;;;-143.09;100.00
5905;BME280;2978;42.012;24.880;2023-06-19T08:19:14;66104.38;;;-143.09;100.00
5905;BME280;2978;42.012;24.880;2023-06-19T08:21:40;66104.38;;;-143.09;100.00
5905;BME280;2978;42.012;24.880;2023-06-19T08:24:06;66104.38;;;-143.09;100.00
5905;BME280;2978;42.012;24.880;2023-06-19T08:26:31;66104.38;;;-143.09;100.00
5905;BME280;2978;42.012;24.880;2023-06-19T08:28:56;66104.38;;;-143.09;100.00
5905;BME280;2978;42.012;24.880;2023-06-19T08:31:22;66104.38;;;-143.09;100.00
5905;BME280;2978;42.012;24.880;2023-06-19T08:33:53;66104.38;;;-143.09;100.00
5905;BME280;2978;42.012;24.880;2023-06-19T08:36:19;66104.38;;;-143.09;100.00
5905;BME280;2978;42.012;24.880;2023-06-19T08:38:44;66104.38;;;-143.09;100.00
5905;BME280;2978;42.012;24.880;2023-06-19T08:41:12;66104.38;;;-143.09;100.00
5905;BME280;2978;42.012;24.880;2023-06-19T08:43:37;66104.38;;;-143.09;100.00
5905;BME280;2978;42.012;24.880;2023-06-19T08:46:15;66104.38;;;-143.09;100.00
5905;BME280;2978;42.012;24.880;2023-06-19T08:48:41;66104.38;;;-143.09;100.00
5905;BME280;2978;42.012;24.880;2023-06-19T08:51:07;66104.38;;;-143.09;100.00
5905;BME280;2978;42.012;24.880;2023-06-19T08:53:35;66104.38;;;-143.09;100.00
5905;BME280;2978;42.012;24.880;2023-06-19T08:56:02;66104.38;;;-143.09;100.00
5905;BME280;2978;42.012;24.880;2023-06-19T08:58:28;66104.38;;;-143.09;100.00
5905;BME280;2978;42.012;24.880;2023-06-19T09:00:53;66104.38;;;-143.09;100.00
5905;BME280;2978;42.012;24.880;2023-06-19T09:03:20;66104.38;;;-143.09;100.00
5905;BME280;2978;42.012;24.880;2023-06-19T09:05:49;66104.38;;;-143.09;100.00
5905;BME280;2978;42.012;24.880;2023-06-19T09:08:16;66104.38;;;-143.09;100.00
5905;BME280;2978;42.012;24.880;2023-06-19T09:10:42;66104.38;;;-143.09;100.00
5905;BME280;2978;42.012;24.880;2023-06-19T09:13:07;66104.38;;;-143.09;100.00
5905;BME280;2978;42.012;24.880;2023-06-19T09:15:37;66104.38;;;-143.09;100.00
5905;BME280;2978;42.012;24.880;2023-06-19T09:18:08;66104.38;;;-143.09;100.00
5905;BME280;2978;42.012;24.880;2023-06-19T09:20:37;66104.38;;;-143.09;100.00
5905;BME280;2978;42.012;24.880;2023-06-19T09:23:04;66104.38;;;-143.09;100.00
5905;BME280;2978;42.012;24.880;2023-06-19T09:25:30;66104.38;;;-143.09;100.00
5905;BME280;2978;42.012;24.880;2023-06-19T09:27:56;66104.38;;;-143.09;100.00
5905;BME280;2978;42.012;24.880;2023-06-19T09:30:22;66104.38;;;-143.09;100.00
5905;BME280;2978;42.012;24.880;2023-06-19T09:32:48;66104.38;;;-143.09;100.00
5905;BME280;2978;42.012;24.880;2023-06-19T09:35:14;66104.38;;;-143.09;100.00
5905;BME280;2978;42.012;24.880;2023-06-19T09:37:40;66104.38;;;-143.09;100.00
5905;BME280;2978;42.012;24.880;2023-06-19T09:40:06;66104.38;;;-143.09;100.00
5905;BME280;2978;42.012;24.880;2023-06-19T09:42:40;66104.38;;;-143.09;100.00
5905;BME280;2978;42.012;24.880;2023-06-19T09:45:07;66104.38;;;-143.09;100.00
5905;BME280;2978;42.012;24.880;2023-06-19T09:47:38;66104.38;;;-143.09;100.00
5905;BME280;2978;42.012;24.880;2023-06-19T09:50:06;66104.38;;;-143.09;100.00
5905;BME280;2978;42.012;24.880;2023-06-19T09:52:32;66104.38;;;-143.09;100.00
5905;BME280;2978;42.012;24.880;2023-06-19T09:55:03;66104.38;;;-143.09;100.00
5905;BME280;2978;42.012;24.880;2023-06-19T09:57:31;66104.38;;;-143.09;100.00
5905;BME280;2978;42.012;24.880;2023-06-19T09:59:58;66104.38;;;-143.09;100.00
5905;BME280;2978;42.012;24.880;2023-06-19T10:02:26;66104.38;;;-143.09;100.00
5905;BME280;2978;42.012;24.880;2023-06-19T10:04:54;66104.38;;;-143.09;100.00
5905;BME280;2978;42.012;24.880;2023-06-19T10:07:26;66104.38;;;-143.09;100.00
5905;BME280;2978;42.012;24.880;2023-06-19T10:10:09;66104.38;;;-143.09;100.00
5905;BME280;2978;42.012;24.880;2023-06-19T10:12:47;66104.38;;;-143.09;100.00
5905;BME280;2978;42.012;24.880;2023-06-19T10:15:29;66104.38;;;-143.09;100.00
5905;BME280;2978;42.012;24.880;2023-06-19T10:18:02;66104.38;;;-143.09;100.00
5905;BME280;2978;42.012;24.880;2023-06-19T10:20:33;66104.38;;;-143.09;100.00
5905;BME280;2978;42.012;24.880;2023-06-19T10:25:35;66104.38;;;-143.09;100.00
5905;BME280;2978;42.012;24.880;2023-06-19T10:28:01;66104.38;;;-143.09;100.00
5905;BME280;2978;42.012;24.880;2023-06-19T10:30:27;66104.38;;;-143.09;100.00
5905;BME280;2978;42.012;24.880;2023-06-19T10:32:53;66104.38;;;-143.09;100.00
5905;BME280;2978;42.012;24.880;2023-06-19T10:35:19;66104.38;;;-143.09;100.00
5905;BME280;2978;42.012;24.880;2023-06-19T10:37:47;66104.38;;;-143.09;100.00
5905;BME280;2978;42.012;24.880;2023-06-19T10:40:13;66104.38;;;-143.09;100.00
5905;BME280;2978;42.012;24.880;2023-06-19T10:42:45;66104.38;;;-143.09;100.00
5905;BME280;2978;42.012;24.880;2023-06-19T10:45:12;66104.38;;;-143.09;100.00
5905;BME280;2978;42.012;24.880;2023-06-19T10:47:40;66104.38;;;-143.09;100.00
5905;BME280;2978;42.012;24.880;2023-06-19T10:50:15;66104.38;;;-143.09;100.00
5905;BME280;2978;42.012;24.880;2023-06-19T10:52:41;66104.38;;;-143.09;100.00
5905;BME280;2978;42.012;24.880;2023-06-19T10:55:08;66104.38;;;-143.09;100.00
5905;BME280;2978;42.012;24.880;2023-06-19T10:57:34;66104.38;;;-143.09;100.00
5905;BME280;2978;42.012;24.880;2023-06-19T10:59:59;66104.38;;;-143.09;100.00
5905;BME280;2978;42.012;24.880;2023-06-19T11:02:25;66104.38;;;-143.09;100.00
5905;BME280;2978;42.012;24.880;2023-06-19T11:04:54;66104.38;;;-143.09;100.00
5905;BME280;2978;42.012;24.880;2023-06-19T11:07:22;66104.38;;;-143.09;100.00
5905;BME280;2978;42.012;24.880;2023-06-19T11:09:49;66104.38;;;-143.09;100.00
5905;BME280;2978;42.012;24.880;2023-06-19T11:12:21;66104.38;;;-143.09;100.00
5905;BME280;2978;42.012;24.880;2023-06-19T11:14:48;66104.38;;;-143.09;100.00
5905;BME280;2978;42.012;24.880;2023-06-19T11:17:14;66104.38;;;-143.09;100.00
5905;BME280;2978;42.012;24.880;2023-06-19T11:19:39;66104.38;;;-143.09;100.00
5905;BME280;2978;42.012;24.880;2023-06-19T11:22:07;66104.38;;;-143.09;100.00
5905;BME280;2978;42.012;24.880;2023-06-19T11:24:33;66104.38;;;-143.09;100.00
5905;BME280;2978;42.012;24.880;2023-06-19T11:26:58;66104.38;;;-143.09;100.00
5905;BME280;2978;42.012;24.880;2023-06-19T11:29:30;66104.38;;;-143.09;100.00
5905;BME280;2978;42.012;24.880;2023-06-19T11:32:31;66104.38;;;-143.09;100.00
5905;BME280;2978;42.012;24.880;2023-06-19T11:34:57;66104.38;;;-143.09;100.00
5905;BME280;2978;42.012;24.880;2023-06-19T11:37:29;66104.38;;;-143.09;100.00
5905;BME280;2978;42.012;24.880;2023-06-19T11:39:56;66104.38;;;-143.09;100.00
5905;BME280;2978;42.012;24.880;2023-06-19T11:42:22;66104.38;;;-143.09;100.00
5905;BME280;2978;42.012;24.880;2023-06-19T11:47:19;66104.38;;;-143.09;100.00
5905;BME280;2978;42.012;24.880;2023-06-19T11:49:47;66104.38;;;-143.09;100.00
5905;BME280;2978;42.012;24.880;2023-06-19T11:52:13;66104.38;;;-143.09;100.00
5905;BME280;2978;42.012;24.880;2023-06-19T11:54:38;66104.38;;;-143.09;100.00
5905;BME280;2978;42.012;24.880;2023-06-19T11:57:04;66104.38;;;-143.09;100.00
5905;BME280;2978;42.012;24.880;2023-06-19T11:59:30;66104.38;;;-143.09;100.00
5905;BME280;2978;42.012;24.880;2023-06-19T12:01:55;66104.38;;;-143.09;100.00
5905;BME280;2978;42.012;24.880;2023-06-19T12:04:23;66104.38;;;-143.09;100.00
5905;BME280;2978;42.012;24.880;2023-06-19T12:06:49;66104.38;;;-143.09;100.00
5905;BME280;2978;42.012;24.880;2023-06-19T12:09:14;66104.38;;;-143.09;100.00
5905;BME280;2978;42.012;24.880;2023-06-19T12:11:40;66104.38;;;-143.09;100.00
5905;BME280;2978;42.012;24.880;2023-06-19T12:14:05;66104.38;;;-143.09;100.00
5905;BME280;2978;42.012;24.880;2023-06-19T12:16:30;66104.38;;;-143.09;100.00
5905;BME280;2978;42.012;24.880;2023-06-19T12:18:56;66104.38;;;-143.09;100.00
5905;BME280;2978;42.012;24.880;2023-06-19T12:21:21;66104.38;;;-143.09;100.00
5905;BME280;2978;42.012;24.880;2023-06-19T12:23:48;66104.38;;;-143.09;100.00
5905;BME280;2978;42.012;24.880;2023-06-19T12:26:13;66104.38;;;-143.09;100.00
5905;BME280;2978;42.012;24.880;2023-06-19T12:28:39;66104.38;;;-143.09;100.00
5905;BME280;2978;42.012;24.880;2023-06-19T12:31:04;66104.38;;;-143.09;100.00
5905;BME280;2978;42.012;24.880;2023-06-19T12:33:30;66104.38;;;-143.09;100.00
5905;BME280;2978;42.012;24.880;2023-06-19T12:35:58;66104.38;;;-143.09;100.00
5905;BME280;2978;42.012;24.880;2023-06-19T12:38:23;66104.38;;;-143.09;100.00
5905;BME280;2978;42.012;24.880;2023-06-19T12:40:49;66104.38;;;-143.09;100.00
5905;BME280;2978;42.012;24.880;2023-06-19T12:43:14;66104.38;;;-143.09;100.00
5905;BME280;2978;42.012;24.880;2023-06-19T12:45:40;66104.38;;;-143.09;100.00
5905;BME280;2978;42.012;24.880;2023-06-19T12:48:07;66104.38;;;-143.09;100.00
5905;BME280;2978;42.012;24.880;2023-06-19T12:50:32;66104.38;;;-143.09;100.00
5905;BME280;2978;42.012;24.880;2023-06-19T12:52:57;66104.38;;;-143.09;100.00
5905;BME280;2978;42.012;24.880;2023-06-19T12:55:23;66104.38;;;-143.09;100.00
5905;BME280;2978;42.012;24.880;2023-06-19T12:57:48;66104.38;;;-143.09;100.00